Time;durP1;ratioP1;P1;durP2;ratioP2;P2;SDS_P1;SDS_P2;PMS_P1;PMS_P2;Temp;Humidity;BMP_temperature;BMP_pressure;BME280_temperature;BME280_humidity;BME280_pressure;Samples;Min_cycle;Max_cycle;Signal;HPM_P1;HPM_P2
2022/05/19 00:04:44;;;;;;;8.23;3.73;;;;;;;8.75;51.56;101125.41;31225546;27;97580;-68
2022/05/19 00:19:44;;;;;;;9.80;4.82;;;;;;;8.50;51.47;101114.25;31224339;28;96657;-68
2022/05/19 00:34:44;;;;;;;9.40;4.70;;;;;;;8.34;52.24;101114.72;31225026;27;110415;-68
2022/05/19 00:49:47;;;;;;;12.05;4.75;;;;;;;8.33;51.68;101114.88;31225030;28;108548;-67
2022/05/19 01:04:53;;;;;;;10.93;4.57;;;;;;;8.13;52.86;101115.59;31223784;27;96535;-68
2022/05/19 01:19:57;;;;;;;11.47;4.20;;;;;;;7.81;53.81;101101.59;31222423;28;96591;-67
2022/05/19 01:34:59;;;;;;;10.48;4.57;;;;;;;7.62;54.10;101108.44;31220331;27;96747;-64
2022/05/19 01:50:18;;;;;;;8.47;4.50;;;;;;;7.44;54.88;101106.34;31233191;27;96637;-66
2022/05/19 02:05:33;;;;;;;6.35;4.10;;;;;;;7.40;55.69;101104.91;31239944;27;96682;-67
2022/05/19 02:20:37;;;;;;;8.38;4.32;;;;;;;7.28;56.66;101097.97;31239128;28;97508;-69
2022/05/19 02:35:38;;;;;;;7.57;4.43;;;;;;;7.16;57.21;101096.34;31235971;27;97813;-68
2022/05/19 02:50:40;;;;;;;11.50;4.68;;;;;;;7.14;57.54;101092.97;31235266;27;105985;-68
2022/05/19 03:05:40;;;;;;;8.63;3.80;;;;;;;7.09;58.44;101080.09;31233468;27;97699;-67
2022/05/19 03:20:41;;;;;;;9.75;4.20;;;;;;;6.91;59.50;101083.28;31231799;28;97325;-67
2022/05/19 03:35:42;;;;;;;9.00;3.88;;;;;;;6.98;60.25;101083.63;31229220;27;97116;-68
2022/05/19 03:50:44;;;;;;;9.70;5.00;;;;;;;7.13;59.97;101076.22;31228049;28;97035;-66
2022/05/19 04:05:45;;;;;;;6.95;4.05;;;;;;;7.42;59.57;101065.88;31226223;27;96670;-67
2022/05/19 04:20:45;;;;;;;7.68;4.03;;;;;;;7.74;59.36;101083.53;31220926;27;96958;-68
2022/05/19 04:35:46;;;;;;;12.75;4.70;;;;;;;8.18;59.14;101067.41;31210853;27;98276;-67
2022/05/19 04:50:50;;;;;;;7.55;3.47;;;;;;;8.80;57.80;101065.56;31221047;28;106317;-68
2022/05/19 05:05:50;;;;;;;5.23;3.53;;;;;;;9.56;55.46;101079.97;31223187;27;97372;-68
2022/05/19 05:20:51;;;;;;;4.55;2.58;;;;;;;10.34;53.13;101084.25;31230711;27;96765;-69
2022/05/19 05:35:51;;;;;;;8.18;3.17;;;;;;;11.03;51.06;101095.44;31239596;28;115872;-68
2022/05/19 05:50:51;;;;;;;5.07;2.80;;;;;;;11.84;50.15;101097.09;31237956;27;107529;-69
2022/05/19 06:05:52;;;;;;;9.65;2.45;;;;;;;12.85;48.17;101084.91;31237144;28;98585;-70
2022/05/19 06:20:52;;;;;;;12.40;2.65;;;;;;;13.85;47.11;101084.00;31236851;27;96788;-68
2022/05/19 06:35:52;;;;;;;7.53;2.22;;;;;;;14.91;44.68;101080.28;31225108;27;97768;-67
2022/05/19 06:50:53;;;;;;;4.82;1.58;;;;;;;16.16;41.57;101079.06;31233408;28;118211;-66
2022/05/19 07:05:53;;;;;;;4.60;1.50;;;;;;;17.58;38.94;101078.59;31232230;28;96775;-68
2022/05/19 07:20:53;;;;;;;4.60;1.17;;;;;;;18.90;33.69;101073.34;31228263;28;96846;-70
2022/05/19 07:35:55;;;;;;;3.15;1.20;;;;;;;19.82;30.74;101059.28;31224147;28;108138;-66
2022/05/19 07:50:55;;;;;;;;;;;;;;;20.17;29.55;101066.28;31225077;27;96843;-66
2022/05/19 08:05:56;;;;;;;3.70;1.30;;;;;;;20.55;29.58;101068.22;31228988;28;96714;-70
2022/05/19 08:21:02;;;;;;;6.68;2.47;;;;;;;21.46;28.69;101053.47;31226126;27;96743;-67
2022/05/19 08:36:03;;;;;;;5.90;1.60;;;;;;;22.54;27.52;101050.50;31253868;27;98021;-68
2022/05/19 08:51:07;;;;;;;3.10;0.97;;;;;;;23.13;26.67;101036.34;31217940;27;97356;-69
2022/05/19 09:06:26;;;;;;;3.73;1.30;;;;;;;23.53;24.91;101027.50;31243140;28;96754;-71
2022/05/19 09:21:27;;;;;;;6.27;1.40;;;;;;;23.97;23.66;101024.41;31243810;28;96846;-70
2022/05/19 09:36:27;;;;;;;1.58;0.90;;;;;;;24.35;23.04;101001.22;31221426;28;96851;-70
2022/05/19 09:51:39;;;;;;;1.52;0.95;;;;;;;25.10;21.46;100984.88;31131356;28;97564;-69
2022/05/19 10:07:05;;;;;;;1.53;0.80;;;;;;;24.95;21.11;100964.47;31114486;28;96711;-67
2022/05/19 10:22:31;;;;;;;4.60;1.20;;;;;;;25.25;20.62;100965.22;31113866;28;96709;-76
2022/05/19 10:37:57;;;;;;;2.17;0.83;;;;;;;25.45;20.79;100935.53;31113212;28;97005;-73
2022/05/19 10:53:12;;;;;;;1.97;0.93;;;;;;;25.68;19.59;100920.00;31103227;28;96757;-67
2022/05/19 11:08:18;;;;;;;5.00;1.20;;;;;;;26.39;18.98;100905.50;31110115;28;96676;-76
2022/05/19 11:23:25;;;;;;;2.80;1.63;;;;;;;26.07;19.75;100884.47;31107874;28;97497;-73
2022/05/19 11:38:57;;;;;;;3.33;1.10;;;;;;;26.12;19.24;100864.56;31101367;28;97011;-70
2022/05/19 12:09:41;;;;;;;7.00;1.33;;;;;;;25.77;17.95;100830.34;31103843;28;97079;-79
